Current Weather

Basrah Intl

Basrah Intl, Iraq (ORMM)

Report from: Sunday, February 25, 2024 1:00 AM UTC
Current time: Sunday, February 25, 2024 1:37 AM UTC

Nearby weather – Weather history – Daily summaries
Weather forecast

Temperature13.0°C (55.4°F)
Dew point11.0°C (51.8°F)
Winds 8 kts (4.1 m/s, 9.2 mph) North (360°)
Visibility5 mi. (8 km)
Clouds Few clouds 3,000 ft. (914 m)
Ceiling: Broken clouds 9,000 ft. (2,743 m)
Altimeter29.88 in.Hg (1012 mB)
Relative humidity88 %
Density altitude-11 ft. (-3 m)
Remarks No significant changes expected in the next two hours
Flight conditions Marginal Visual Meteorological Conditions
Raw dataORMM 250100Z 36008KT 8000 FEW030 BKN090 13/11 Q1012 NOSIG
An error has occurred. This application may no longer respond until reloaded. Reload 🗙